Barrington, New Jersey
Current Conditions -  °F | °C
As of 6:54 AM on Monday 20 Oct 2014 (Local Time) from KPHL Reporting Station
Scattered Clouds Scattered Clouds  
Wind Chill: 36°   Ceiling: Unl
Heat Index: 41°   Visibility: 10mi
Dew Point: 31°   Wind: 7mph
Humidity: 67%   Direction: 160°SSE
Pressure: 30.13"   Gusts: NA
Location:  39.87°N, 75.05°W
Report Text: KPHL 201054Z 16006KT 10SM SCT180 SCT250 05/M01 A3013 RMK AO2 SLP202 T00501006 $
Loading
Personal Weather Stations






























Interactive Weather Map
Tropical Storm Tracking
New forecast layout! Learn more

10-Day Weather Forecast

Advertisements
Track Severe Weather on mobile